createdAt,value
2019-05-05T00:03:36.050Z,59.55
2019-05-05T00:06:06.346Z,59.40
2019-05-05T00:08:35.211Z,59.49
2019-05-05T00:11:11.376Z,59.66
2019-05-05T00:13:58.120Z,59.74
2019-05-05T00:16:28.458Z,59.95
2019-05-05T00:18:57.534Z,60.58
2019-05-05T00:21:26.188Z,61.05
2019-05-05T00:23:55.407Z,61.31
2019-05-05T00:26:24.564Z,61.79
2019-05-05T00:28:55.302Z,61.03
2019-05-05T00:31:24.336Z,60.44
2019-05-05T00:33:54.396Z,60.13
2019-05-05T00:36:24.655Z,60.33
2019-05-05T00:38:55.282Z,60.78
2019-05-05T00:41:25.317Z,61.13
2019-05-05T00:43:56.775Z,60.92
2019-05-05T00:46:35.173Z,61.35
2019-05-05T00:49:05.432Z,61.48
2019-05-05T00:51:34.838Z,61.01
2019-05-05T00:54:04.426Z,61.33
2019-05-05T00:56:34.279Z,62.03
2019-05-05T00:59:10.716Z,62.29
2019-05-05T01:01:51.311Z,62.54
2019-05-05T01:04:21.643Z,62.47
2019-05-05T01:06:50.316Z,61.87
2019-05-05T01:09:25.261Z,62.29
2019-05-05T01:11:55.049Z,62.38
2019-05-05T01:14:24.976Z,62.55
2019-05-05T01:16:54.607Z,62.30
2019-05-05T01:19:24.333Z,61.65
2019-05-05T01:21:54.422Z,61.62
2019-05-05T01:24:24.864Z,61.97
2019-05-05T01:26:55.087Z,62.17
2019-05-05T01:29:25.288Z,62.49
2019-05-05T01:31:55.749Z,62.79
2019-05-05T01:34:26.091Z,62.86
2019-05-05T01:36:56.386Z,63.03
2019-05-05T01:39:29.794Z,63.10
2019-05-05T01:42:04.881Z,62.53
2019-05-05T01:44:35.201Z,61.86
2019-05-05T01:47:05.335Z,61.35
2019-05-05T01:49:34.576Z,61.02
2019-05-05T01:52:04.350Z,61.03
2019-05-05T01:54:35.178Z,61.43
2019-05-05T01:57:05.480Z,61.44
2019-05-05T01:59:35.376Z,61.00
2019-05-05T02:02:04.514Z,61.12
2019-05-05T02:04:34.309Z,61.69
2019-05-05T02:07:05.303Z,62.13
2019-05-05T02:09:35.364Z,62.64
2019-05-05T02:12:05.348Z,63.05
2019-05-05T02:14:35.215Z,63.01
2019-05-05T02:17:05.071Z,62.48
2019-05-05T02:19:35.019Z,61.85
2019-05-05T02:22:05.309Z,62.00
2019-05-05T02:24:35.301Z,62.41
2019-05-05T02:27:05.139Z,62.73
2019-05-05T02:29:38.407Z,62.95
2019-05-05T02:32:08.734Z,62.14
2019-05-05T02:34:39.029Z,61.52
2019-05-05T02:37:07.731Z,61.22
2019-05-05T02:39:39.257Z,60.93
2019-05-05T02:42:06.891Z,60.82
2019-05-05T02:44:37.146Z,60.88
2019-05-05T02:47:15.463Z,61.34
2019-05-05T02:49:45.375Z,61.80
2019-05-05T02:52:15.344Z,61.87
2019-05-05T02:54:44.961Z,61.54
2019-05-05T02:57:14.662Z,61.93
2019-05-05T02:59:45.362Z,62.32
2019-05-05T03:02:16.797Z,62.87
2019-05-05T03:04:45.960Z,62.41
2019-05-05T03:07:16.546Z,61.94
2019-05-05T03:09:46.677Z,61.50
2019-05-05T03:12:17.382Z,61.23
2019-05-05T03:14:47.044Z,61.59
2019-05-05T03:17:15.912Z,62.05
2019-05-05T03:19:45.011Z,62.41
2019-05-05T03:22:14.346Z,62.59
2019-05-05T03:24:44.657Z,62.83
2019-05-05T03:27:14.459Z,62.54
2019-05-05T03:29:44.197Z,62.70
2019-05-05T03:32:16.067Z,62.83
2019-05-05T03:34:44.510Z,62.40
2019-05-05T03:37:14.625Z,62.24
2019-05-05T03:39:45.107Z,61.79
2019-05-05T03:42:15.396Z,61.69
2019-05-05T03:44:54.663Z,61.43
2019-05-05T03:47:24.152Z,61.16
2019-05-05T03:49:53.567Z,60.96
2019-05-05T03:52:24.474Z,60.96
2019-05-05T03:54:54.165Z,60.91
2019-05-05T03:57:24.637Z,60.86
2019-05-05T03:59:54.731Z,60.81
2019-05-05T04:02:27.946Z,60.83
2019-05-05T04:05:04.459Z,60.85
2019-05-05T04:07:33.547Z,60.79
2019-05-05T04:10:03.723Z,60.92
2019-05-05T04:12:34.587Z,60.97
2019-05-05T04:15:04.725Z,60.91
2019-05-05T04:17:37.998Z,60.98
2019-05-05T04:20:21.478Z,61.13
2019-05-05T04:22:50.196Z,61.19
2019-05-05T04:25:19.020Z,61.58
2019-05-05T04:27:47.682Z,61.81
2019-05-05T04:30:17.500Z,62.47
2019-05-05T04:32:46.148Z,62.88
2019-05-05T04:35:14.988Z,63.12
2019-05-05T04:37:43.900Z,63.56
2019-05-05T04:40:14.715Z,63.88
2019-05-05T04:42:44.067Z,63.88
2019-05-05T04:45:14.825Z,63.74
2019-05-05T04:47:45.409Z,64.07
2019-05-05T04:50:18.319Z,64.17
2019-05-05T04:52:46.608Z,64.39
2019-05-05T04:55:15.435Z,64.44
2019-05-05T04:57:44.156Z,64.62
2019-05-05T05:00:13.722Z,64.85
2019-05-05T05:02:50.320Z,64.99
2019-05-05T05:05:24.440Z,65.30
2019-05-05T05:07:54.325Z,65.66
2019-05-05T05:10:24.096Z,65.48
2019-05-05T05:12:53.974Z,65.91
2019-05-05T05:15:23.964Z,66.28
2019-05-05T05:17:54.336Z,66.49
2019-05-05T05:20:24.691Z,66.65
2019-05-05T05:22:54.431Z,67.13
2019-05-05T05:25:24.025Z,67.24
2019-05-05T05:27:53.614Z,67.90
2019-05-05T05:30:24.261Z,67.66
2019-05-05T05:32:53.871Z,67.87
2019-05-05T05:35:24.375Z,68.64
2019-05-05T05:37:54.010Z,68.82
2019-05-05T05:40:31.695Z,68.98
2019-05-05T05:43:02.015Z,69.41
2019-05-05T05:45:35.066Z,69.67
2019-05-05T05:48:08.362Z,70.06
2019-05-05T05:50:50.782Z,70.46
2019-05-05T05:53:19.510Z,70.18
2019-05-05T05:55:48.174Z,70.63
2019-05-05T05:58:16.871Z,70.93
2019-05-05T06:00:45.545Z,70.32
2019-05-05T06:03:14.393Z,70.26
2019-05-05T06:05:43.561Z,69.76
2019-05-05T06:08:14.180Z,69.99
2019-05-05T06:10:44.262Z,69.73
2019-05-05T06:13:15.326Z,69.60
2019-05-05T06:15:44.327Z,69.32
2019-05-05T06:18:13.862Z,69.07
2019-05-05T06:20:44.751Z,68.91
2019-05-05T06:23:14.679Z,69.04
2019-05-05T06:25:44.581Z,69.16
2019-05-05T06:28:14.532Z,69.25
2019-05-05T06:30:44.291Z,69.15
2019-05-05T06:33:13.803Z,69.45
2019-05-05T06:35:44.321Z,69.20
2019-05-05T06:38:13.666Z,68.92
2019-05-05T06:40:44.507Z,68.31
2019-05-05T06:43:27.288Z,68.60
2019-05-05T06:45:57.597Z,67.93
2019-05-05T06:48:26.342Z,66.99
2019-05-05T06:50:54.975Z,67.16
2019-05-05T06:53:23.960Z,66.22
2019-05-05T06:55:54.292Z,65.41
2019-05-05T06:58:24.192Z,63.90
2019-05-05T07:00:54.276Z,62.94
2019-05-05T07:03:24.404Z,62.29
2019-05-05T07:05:53.995Z,59.44
2019-05-05T07:08:24.410Z,57.35
2019-05-05T07:10:54.853Z,52.56
2019-05-05T07:13:24.496Z,50.49
2019-05-05T07:15:54.276Z,48.19
2019-05-05T07:18:24.710Z,46.60
2019-05-05T07:20:54.459Z,42.84
2019-05-05T07:23:24.646Z,42.23
2019-05-05T07:25:54.948Z,38.96
2019-05-05T07:28:23.999Z,37.84
2019-05-05T07:30:54.784Z,34.89
2019-05-05T07:33:23.848Z,35.49
2019-05-05T07:36:02.943Z,34.69
2019-05-05T07:38:26.757Z,30.87
2019-05-05T07:40:55.485Z,30.43
2019-05-05T07:43:24.389Z,29.33
2019-05-05T07:45:54.046Z,28.99
2019-05-05T07:48:24.297Z,29.07
2019-05-05T07:51:02.013Z,28.27
2019-05-05T07:53:24.475Z,26.81
2019-05-05T07:55:54.194Z,25.06
2019-05-05T07:58:24.258Z,25.27
2019-05-05T08:00:54.095Z,22.13
2019-05-05T08:03:23.625Z,22.05
2019-05-05T08:05:54.374Z,22.12
2019-05-05T08:08:24.449Z,21.56
2019-05-05T08:10:54.185Z,23.41
2019-05-05T08:13:24.321Z,21.14
2019-05-05T08:15:59.777Z,20.56
2019-05-05T08:18:43.834Z,20.57
2019-05-05T08:21:13.635Z,21.53
2019-05-05T08:23:54.103Z,19.93
2019-05-05T08:26:44.205Z,19.18
2019-05-05T08:29:23.976Z,18.96
2019-05-05T08:31:54.354Z,19.14
2019-05-05T08:34:24.493Z,17.73
2019-05-05T08:36:53.883Z,18.47
2019-05-05T08:39:24.390Z,18.00
2019-05-05T08:41:53.809Z,17.60
2019-05-05T08:44:23.677Z,17.60
2019-05-05T08:46:53.786Z,17.50
2019-05-05T08:49:24.446Z,18.83
2019-05-05T08:51:54.897Z,17.65
2019-05-05T08:54:23.690Z,18.21
2019-05-05T08:56:52.389Z,17.48
2019-05-05T08:59:21.083Z,17.22
2019-05-05T09:01:49.752Z,16.80
2019-05-05T09:04:18.874Z,16.29
2019-05-05T09:06:47.651Z,16.36
2019-05-05T09:09:16.324Z,17.44
2019-05-05T09:11:44.993Z,17.32
2019-05-05T09:14:14.902Z,17.53
2019-05-05T09:16:44.759Z,17.25
2019-05-05T09:19:18.637Z,16.89
2019-05-05T09:21:47.723Z,16.10
2019-05-05T09:24:18.061Z,15.63
2019-05-05T09:26:55.787Z,17.69
2019-05-05T09:29:32.052Z,19.08
2019-05-05T09:32:00.791Z,19.95
2019-05-05T09:34:29.515Z,20.51
2019-05-05T09:36:59.457Z,21.32
2019-05-05T09:39:28.183Z,22.39
2019-05-05T09:41:57.327Z,23.92
2019-05-05T09:44:26.000Z,25.48
2019-05-05T09:46:54.667Z,26.12
2019-05-05T09:49:24.616Z,26.19
2019-05-05T09:51:54.466Z,25.11
2019-05-05T09:54:24.330Z,22.92
2019-05-05T09:56:53.782Z,21.65
2019-05-05T09:59:24.052Z,22.03
2019-05-05T10:01:54.986Z,23.19
2019-05-05T10:04:24.845Z,23.33
2019-05-05T10:06:53.630Z,23.37
2019-05-05T10:09:24.204Z,22.95
2019-05-05T10:11:54.149Z,22.71
2019-05-05T10:14:23.626Z,23.92
2019-05-05T10:16:54.162Z,24.08
2019-05-05T10:19:24.347Z,24.03
2019-05-05T10:21:53.285Z,24.64
2019-05-05T10:24:30.149Z,24.83
2019-05-05T10:26:54.362Z,24.73
2019-05-05T10:29:23.079Z,25.11
2019-05-05T10:31:53.856Z,23.44
2019-05-05T10:34:24.208Z,23.24
2019-05-05T10:36:53.574Z,23.17
2019-05-05T10:39:29.839Z,22.18
2019-05-05T10:41:58.595Z,23.03
2019-05-05T10:44:27.234Z,22.54
2019-05-05T10:46:55.976Z,23.29
2019-05-05T10:49:24.630Z,23.76
2019-05-05T10:51:54.454Z,25.42
2019-05-05T10:54:23.728Z,26.87
2019-05-05T10:56:52.551Z,28.26
2019-05-05T10:59:23.662Z,29.28
2019-05-05T11:01:53.794Z,30.23
2019-05-05T11:04:24.213Z,31.42
2019-05-05T11:06:54.656Z,32.04
2019-05-05T11:09:24.377Z,32.88
2019-05-05T11:11:53.374Z,33.03
2019-05-05T11:14:22.116Z,32.19
2019-05-05T11:16:50.829Z,32.19
2019-05-05T11:19:19.517Z,31.44
2019-05-05T11:21:48.251Z,31.37
2019-05-05T11:24:16.946Z,29.82
2019-05-05T11:26:45.607Z,27.91
2019-05-05T11:29:14.391Z,28.23
2019-05-05T11:31:43.054Z,28.64
2019-05-05T11:34:14.014Z,28.10
2019-05-05T11:36:44.544Z,27.15
2019-05-05T11:39:14.809Z,26.28
2019-05-05T11:41:44.126Z,25.16
2019-05-05T11:44:14.995Z,23.83
2019-05-05T11:46:44.256Z,23.73
2019-05-05T11:49:13.912Z,23.55
2019-05-05T11:51:43.717Z,24.33
2019-05-05T11:54:14.063Z,23.56
2019-05-05T11:56:44.695Z,24.15
2019-05-05T11:59:14.439Z,24.89
2019-05-05T12:01:44.007Z,24.46
2019-05-05T12:04:14.744Z,25.84
2019-05-05T12:06:44.273Z,25.81
2019-05-05T12:09:14.811Z,24.93
2019-05-05T12:11:43.912Z,25.42
2019-05-05T12:14:14.397Z,25.37
2019-05-05T12:16:43.920Z,25.75
2019-05-05T12:19:13.731Z,26.55
2019-05-05T12:21:44.194Z,27.38
2019-05-05T12:24:14.795Z,27.45
2019-05-05T12:27:00.243Z,27.30
2019-05-05T12:29:29.061Z,28.01
2019-05-05T12:31:57.763Z,27.48
2019-05-05T12:34:26.474Z,28.36
2019-05-05T12:36:55.152Z,28.05
2019-05-05T12:39:23.902Z,28.50
2019-05-05T12:41:54.277Z,27.96
2019-05-05T12:44:24.841Z,27.76
2019-05-05T12:46:55.148Z,28.83
2019-05-05T12:49:25.380Z,28.75
2019-05-05T12:51:54.291Z,28.75
2019-05-05T12:54:24.570Z,29.65
2019-05-05T12:56:53.987Z,29.49
2019-05-05T12:59:25.006Z,29.64
2019-05-05T13:01:54.785Z,29.96
2019-05-05T13:04:24.558Z,30.16
2019-05-05T13:06:54.019Z,31.34
2019-05-05T13:09:24.339Z,30.88
2019-05-05T13:11:54.137Z,30.36
2019-05-05T13:14:22.999Z,29.76
2019-05-05T13:16:55.351Z,29.82
2019-05-05T13:19:35.780Z,30.96
2019-05-05T13:22:15.145Z,31.16
2019-05-05T13:24:45.607Z,31.51
2019-05-05T13:27:19.358Z,31.93
2019-05-05T13:29:46.389Z,31.80
2019-05-05T13:32:15.095Z,33.36
2019-05-05T13:34:43.989Z,30.88
2019-05-05T13:37:14.116Z,28.97
2019-05-05T13:39:44.540Z,28.70
2019-05-05T13:42:13.934Z,28.70
2019-05-05T13:44:59.612Z,27.39
2019-05-05T13:47:28.293Z,28.29
2019-05-05T13:49:58.639Z,28.66
2019-05-05T13:52:27.526Z,28.66
2019-05-05T13:54:56.187Z,29.27
2019-05-05T13:57:24.844Z,30.18
2019-05-05T13:59:54.539Z,30.09
2019-05-05T14:02:24.427Z,30.25
2019-05-05T14:04:54.223Z,29.63
2019-05-05T14:07:23.945Z,29.53
2019-05-05T14:09:54.858Z,29.24
2019-05-05T14:12:24.072Z,28.24
2019-05-05T14:14:54.599Z,28.68
2019-05-05T14:17:23.328Z,28.50
2019-05-05T14:20:03.967Z,29.03
2019-05-05T14:22:24.271Z,28.11
2019-05-05T14:24:54.663Z,27.83
2019-05-05T14:27:23.771Z,29.07
2019-05-05T14:29:54.247Z,28.72
2019-05-05T14:35:25.074Z,28.20
2019-05-05T14:37:55.453Z,27.59
2019-05-05T14:40:24.185Z,27.37
2019-05-05T14:42:53.967Z,27.76
2019-05-05T14:45:23.493Z,28.19
2019-05-05T14:47:53.583Z,28.95
2019-05-05T14:50:24.180Z,27.56
2019-05-05T14:52:53.513Z,28.32
2019-05-05T14:55:22.592Z,27.84
2019-05-05T14:57:53.332Z,28.20
2019-05-05T15:00:24.267Z,27.34
2019-05-05T15:02:54.468Z,28.59
2019-05-05T15:05:41.256Z,28.13
2019-05-05T15:08:13.435Z,26.10
2019-05-05T15:10:54.597Z,26.72
2019-05-05T15:13:24.332Z,26.76
2019-05-05T15:15:53.962Z,26.83
2019-05-05T15:18:24.120Z,26.13
2019-05-05T15:20:54.650Z,27.39
2019-05-05T15:23:24.107Z,27.76
2019-05-05T15:25:54.039Z,28.34
2019-05-05T15:28:24.524Z,28.85
2019-05-05T15:30:54.811Z,28.85
2019-05-05T15:33:24.389Z,28.73
2019-05-05T15:35:53.992Z,28.57
2019-05-05T15:38:24.407Z,29.72
2019-05-05T15:40:54.692Z,30.79
2019-05-05T15:43:24.321Z,31.07
2019-05-05T15:45:53.995Z,31.02
2019-05-05T15:48:22.847Z,30.89
2019-05-05T15:50:51.505Z,31.54
2019-05-05T15:53:20.286Z,31.14
2019-05-05T15:55:49.056Z,31.42
2019-05-05T15:58:20.656Z,31.84
2019-05-05T16:00:48.610Z,32.30
2019-05-05T16:03:17.392Z,32.85
2019-05-05T16:05:46.138Z,33.53
2019-05-05T16:08:14.835Z,33.90
2019-05-05T16:10:43.989Z,34.22
2019-05-05T16:13:14.043Z,34.81
2019-05-05T16:15:44.373Z,35.48
2019-05-05T16:18:20.708Z,35.52
2019-05-05T16:21:07.153Z,35.78
2019-05-05T16:23:37.506Z,36.09
2019-05-05T16:26:07.841Z,35.89
2019-05-05T16:28:36.654Z,36.18
2019-05-05T16:31:06.009Z,36.35
2019-05-05T16:33:34.803Z,36.41
2019-05-05T16:36:06.088Z,36.71
2019-05-05T16:38:34.455Z,36.66
2019-05-05T16:41:03.110Z,36.28
2019-05-05T16:43:33.624Z,36.68
2019-05-05T16:46:04.133Z,36.32
2019-05-05T16:48:34.380Z,36.06
2019-05-05T16:51:04.627Z,35.38
2019-05-05T16:53:37.194Z,34.96
2019-05-05T16:56:09.315Z,35.14
2019-05-05T16:58:38.084Z,35.30
2019-05-05T17:01:08.429Z,35.29
2019-05-05T17:03:37.153Z,34.88
2019-05-05T17:06:05.853Z,34.69
2019-05-05T17:08:34.555Z,34.80
2019-05-05T17:11:03.398Z,35.17
2019-05-05T17:13:36.434Z,35.40
2019-05-05T17:16:16.230Z,35.39
2019-05-05T17:19:01.835Z,35.51
2019-05-05T17:24:34.969Z,35.00
2019-05-05T17:27:03.715Z,35.01
2019-05-05T17:29:34.372Z,35.33
2019-05-05T17:32:03.441Z,34.98
2019-05-05T17:34:33.938Z,35.33
2019-05-05T17:37:04.277Z,35.19
2019-05-05T17:39:34.771Z,34.99
2019-05-05T17:42:05.181Z,35.18
2019-05-05T17:44:35.523Z,35.79
2019-05-05T17:47:17.829Z,35.77
2019-05-05T17:50:04.329Z,36.05
2019-05-05T17:52:38.490Z,36.24
2019-05-05T17:55:20.753Z,36.19
2019-05-05T17:57:59.753Z,36.77
2019-05-05T18:00:20.266Z,36.85
2019-05-05T18:02:48.998Z,36.60
2019-05-05T18:05:18.594Z,36.55
2019-05-05T18:07:50.606Z,36.99
2019-05-05T18:10:24.042Z,37.24
2019-05-05T18:13:14.270Z,37.34
2019-05-05T18:15:54.418Z,37.41
2019-05-05T18:18:23.478Z,37.41
2019-05-05T18:20:54.075Z,39.65
2019-05-05T18:23:23.442Z,41.43
2019-05-05T18:25:52.370Z,42.72
2019-05-05T18:28:24.700Z,42.93
2019-05-05T18:30:53.937Z,43.57
2019-05-05T18:33:24.515Z,44.82
2019-05-05T18:35:54.246Z,44.72
2019-05-05T18:38:23.577Z,44.89
2019-05-05T18:40:53.764Z,45.12
2019-05-05T18:43:24.507Z,45.41
2019-05-05T18:46:01.761Z,45.35
2019-05-05T18:48:30.479Z,45.64
2019-05-05T18:50:59.247Z,45.74
2019-05-05T18:53:28.762Z,45.77
2019-05-05T18:55:57.530Z,45.96
2019-05-05T18:58:30.339Z,45.95
2019-05-05T19:01:08.076Z,45.95
2019-05-05T19:03:44.371Z,46.05
2019-05-05T19:06:17.538Z,46.20
2019-05-05T19:08:54.259Z,46.12
2019-05-05T19:11:18.683Z,46.24
2019-05-05T19:13:47.477Z,46.30
2019-05-05T19:16:16.268Z,46.42
2019-05-05T19:18:44.950Z,46.37
2019-05-05T19:21:18.436Z,46.44
2019-05-05T19:23:47.163Z,46.56
2019-05-05T19:26:15.934Z,46.49
2019-05-05T19:28:49.877Z,46.79
2019-05-05T19:31:15.237Z,46.88
2019-05-05T19:33:43.973Z,47.20
2019-05-05T19:36:12.763Z,47.46
2019-05-05T19:38:41.445Z,47.47
2019-05-05T19:41:10.289Z,47.63
2019-05-05T19:43:40.650Z,47.78
2019-05-05T19:46:10.987Z,47.92
2019-05-05T19:48:39.814Z,48.03
2019-05-05T19:51:14.138Z,48.27
2019-05-05T19:53:44.618Z,48.43
2019-05-05T19:56:13.623Z,48.71
2019-05-05T19:58:57.555Z,49.00
2019-05-05T20:01:12.849Z,49.67
2019-05-05T20:03:43.827Z,49.80
2019-05-05T20:06:13.706Z,50.05
2019-05-05T20:08:44.257Z,50.14
2019-05-05T20:11:14.317Z,50.11
2019-05-05T20:13:44.587Z,50.37
2019-05-05T20:16:34.131Z,50.83
2019-05-05T20:19:04.179Z,50.91
2019-05-05T20:21:34.649Z,51.06
2019-05-05T20:24:03.769Z,51.48
2019-05-05T20:26:34.639Z,51.95
2019-05-05T20:29:13.675Z,52.34
2019-05-05T20:31:34.594Z,52.14
2019-05-05T20:34:05.050Z,52.36
2019-05-05T20:36:35.389Z,52.65
2019-05-05T20:39:06.863Z,52.78
2019-05-05T20:41:37.167Z,53.02
2019-05-05T20:44:06.267Z,53.05
2019-05-05T20:46:34.933Z,53.06
2019-05-05T20:49:04.014Z,53.26
2019-05-05T20:51:33.931Z,53.34
2019-05-05T20:54:04.747Z,53.25
2019-05-05T20:56:33.775Z,53.27
2019-05-05T20:59:02.726Z,53.29
2019-05-05T21:01:31.469Z,53.39
2019-05-05T21:04:00.706Z,53.62
2019-05-05T21:06:29.396Z,53.51
2019-05-05T21:08:58.064Z,53.51
2019-05-05T21:11:26.792Z,53.62
2019-05-05T21:13:55.485Z,53.59
2019-05-05T21:16:24.208Z,53.79
2019-05-05T21:18:53.920Z,53.69
2019-05-05T21:21:24.857Z,53.93
2019-05-05T21:23:55.236Z,53.87
2019-05-05T21:26:28.489Z,54.12
2019-05-05T21:28:57.256Z,54.08
2019-05-05T21:31:25.921Z,54.09
2019-05-05T21:33:54.967Z,54.08
2019-05-05T21:36:24.379Z,53.96
2019-05-05T21:38:54.734Z,54.14
2019-05-05T21:41:24.437Z,54.42
2019-05-05T21:43:54.283Z,54.73
2019-05-05T21:46:24.033Z,54.85
2019-05-05T21:48:54.353Z,54.79
2019-05-05T21:51:24.951Z,54.85
2019-05-05T21:53:55.267Z,54.76
2019-05-05T21:56:41.963Z,54.73
2019-05-05T21:59:10.641Z,54.99
2019-05-05T22:01:40.967Z,54.89
2019-05-05T22:04:12.480Z,55.03
2019-05-05T22:06:40.315Z,55.02
2019-05-05T22:09:08.979Z,55.02
2019-05-05T22:11:37.757Z,55.42
2019-05-05T22:14:06.445Z,55.46
2019-05-05T22:16:35.571Z,55.33
2019-05-05T22:19:06.053Z,55.50
2019-05-05T22:21:36.376Z,55.62
2019-05-05T22:24:19.545Z,55.72
2019-05-05T22:26:48.392Z,55.80
2019-05-05T22:29:17.369Z,55.92
2019-05-05T22:31:46.156Z,56.00
2019-05-05T22:34:14.889Z,56.22
2019-05-05T22:36:44.844Z,56.52
2019-05-05T22:39:16.527Z,56.39
2019-05-05T22:41:44.692Z,56.28
2019-05-05T22:44:14.026Z,56.63
2019-05-05T22:46:42.947Z,56.91
2019-05-05T22:49:11.684Z,57.03
2019-05-05T22:51:57.203Z,57.86
2019-05-05T22:54:25.868Z,58.54
2019-05-05T22:56:54.602Z,58.87
2019-05-05T22:59:25.988Z,59.04
2019-05-05T23:01:54.196Z,59.04
2019-05-05T23:04:24.727Z,59.01
2019-05-05T23:06:58.036Z,58.71
2019-05-05T23:09:26.742Z,58.65
2019-05-05T23:11:55.407Z,58.64
2019-05-05T23:14:30.545Z,58.95
2019-05-05T23:17:20.926Z,58.84
2019-05-05T23:19:54.018Z,58.64
2019-05-05T23:22:24.328Z,58.47
2019-05-05T23:27:48.636Z,59.00
2019-05-05T23:30:20.197Z,58.68
2019-05-05T23:32:48.964Z,58.94
2019-05-05T23:35:18.486Z,59.07
2019-05-05T23:37:47.264Z,59.23
2019-05-05T23:40:21.630Z,59.02
2019-05-05T23:42:50.434Z,58.80
2019-05-05T23:45:19.386Z,58.78
2019-05-05T23:47:48.059Z,58.85
2019-05-05T23:50:17.072Z,59.28
2019-05-05T23:52:45.732Z,59.63
2019-05-05T23:55:14.640Z,59.56
2019-05-05T23:57:43.794Z,59.42
